sensor_id;sensor_type;location;lat;lon;timestamp;P1;durP1;ratioP1;P2;durP2;ratioP2
5454;SDS011;2750;49.050;9.250;2023-05-10T00:03:06;3.73;;;3.37;;
5454;SDS011;2750;49.050;9.250;2023-05-10T00:08:08;3.97;;;3.10;;
5454;SDS011;2750;49.050;9.250;2023-05-10T00:13:11;1.77;;;1.67;;
5454;SDS011;2750;49.050;9.250;2023-05-10T00:18:12;2.70;;;1.73;;
5454;SDS011;2750;49.050;9.250;2023-05-10T00:23:14;3.70;;;1.57;;
5454;SDS011;2750;49.050;9.250;2023-05-10T00:28:16;1.50;;;1.40;;
5454;SDS011;2750;49.050;9.250;2023-05-10T00:33:18;3.50;;;1.80;;
5454;SDS011;2750;49.050;9.250;2023-05-10T00:38:19;2.93;;;1.47;;
5454;SDS011;2750;49.050;9.250;2023-05-10T00:43:22;1.77;;;1.40;;
5454;SDS011;2750;49.050;9.250;2023-05-10T00:48:23;1.57;;;1.40;;
5454;SDS011;2750;49.050;9.250;2023-05-10T00:53:25;3.10;;;1.50;;
5454;SDS011;2750;49.050;9.250;2023-05-10T00:58:29;1.60;;;1.50;;
5454;SDS011;2750;49.050;9.250;2023-05-10T01:03:31;4.00;;;1.50;;
5454;SDS011;2750;49.050;9.250;2023-05-10T01:08:33;2.23;;;1.67;;
5454;SDS011;2750;49.050;9.250;2023-05-10T01:13:36;1.63;;;1.53;;
5454;SDS011;2750;49.050;9.250;2023-05-10T01:18:40;1.80;;;1.60;;
5454;SDS011;2750;49.050;9.250;2023-05-10T01:23:45;2.23;;;1.97;;
5454;SDS011;2750;49.050;9.250;2023-05-10T01:29:10;2.17;;;1.80;;
5454;SDS011;2750;49.050;9.250;2023-05-10T01:34:21;2.10;;;2.00;;
5454;SDS011;2750;49.050;9.250;2023-05-10T01:39:28;2.37;;;2.17;;
5454;SDS011;2750;49.050;9.250;2023-05-10T01:44:38;2.77;;;1.90;;
5454;SDS011;2750;49.050;9.250;2023-05-10T01:49:45;2.10;;;1.90;;
5454;SDS011;2750;49.050;9.250;2023-05-10T01:54:52;3.33;;;2.27;;
5454;SDS011;2750;49.050;9.250;2023-05-10T01:59:56;2.63;;;2.43;;
5454;SDS011;2750;49.050;9.250;2023-05-10T02:05:02;2.03;;;1.83;;
5454;SDS011;2750;49.050;9.250;2023-05-10T02:10:05;2.13;;;1.93;;
5454;SDS011;2750;49.050;9.250;2023-05-10T02:15:08;1.87;;;1.77;;
5454;SDS011;2750;49.050;9.250;2023-05-10T02:20:14;2.77;;;2.30;;
5454;SDS011;2750;49.050;9.250;2023-05-10T02:25:18;2.57;;;2.10;;
5454;SDS011;2750;49.050;9.250;2023-05-10T02:30:21;2.40;;;2.20;;
5454;SDS011;2750;49.050;9.250;2023-05-10T02:35:25;2.90;;;2.33;;
5454;SDS011;2750;49.050;9.250;2023-05-10T02:40:28;3.60;;;2.50;;
5454;SDS011;2750;49.050;9.250;2023-05-10T02:45:31;4.50;;;2.40;;
5454;SDS011;2750;49.050;9.250;2023-05-10T02:50:36;3.97;;;2.80;;
5454;SDS011;2750;49.050;9.250;2023-05-10T02:55:40;2.50;;;2.30;;
5454;SDS011;2750;49.050;9.250;2023-05-10T03:00:44;4.23;;;2.57;;
5454;SDS011;2750;49.050;9.250;2023-05-10T03:05:47;3.10;;;2.27;;
5454;SDS011;2750;49.050;9.250;2023-05-10T03:10:51;2.40;;;2.20;;
5454;SDS011;2750;49.050;9.250;2023-05-10T03:16:04;3.43;;;2.80;;
5454;SDS011;2750;49.050;9.250;2023-05-10T03:21:11;2.70;;;2.33;;
5454;SDS011;2750;49.050;9.250;2023-05-10T03:26:17;4.23;;;3.00;;
5454;SDS011;2750;49.050;9.250;2023-05-10T03:31:21;5.00;;;2.83;;
5454;SDS011;2750;49.050;9.250;2023-05-10T03:36:24;3.93;;;2.80;;
5454;SDS011;2750;49.050;9.250;2023-05-10T03:41:26;7.70;;;3.10;;
5454;SDS011;2750;49.050;9.250;2023-05-10T03:46:27;3.70;;;3.17;;
5454;SDS011;2750;49.050;9.250;2023-05-10T03:51:30;4.07;;;3.67;;
5454;SDS011;2750;49.050;9.250;2023-05-10T03:56:31;4.73;;;4.03;;
5454;SDS011;2750;49.050;9.250;2023-05-10T04:01:33;4.97;;;3.97;;
5454;SDS011;2750;49.050;9.250;2023-05-10T04:06:37;6.57;;;4.73;;
5454;SDS011;2750;49.050;9.250;2023-05-10T04:11:38;5.80;;;5.30;;
5454;SDS011;2750;49.050;9.250;2023-05-10T04:16:40;5.60;;;5.10;;
5454;SDS011;2750;49.050;9.250;2023-05-10T04:21:43;4.93;;;4.40;;
5454;SDS011;2750;49.050;9.250;2023-05-10T04:26:44;4.73;;;4.33;;
5454;SDS011;2750;49.050;9.250;2023-05-10T04:31:46;8.27;;;5.07;;
5454;SDS011;2750;49.050;9.250;2023-05-10T04:36:50;6.23;;;5.40;;
5454;SDS011;2750;49.050;9.250;2023-05-10T04:41:51;5.70;;;5.20;;
5454;SDS011;2750;49.050;9.250;2023-05-10T04:46:53;5.70;;;5.20;;
5454;SDS011;2750;49.050;9.250;2023-05-10T04:51:55;6.50;;;5.80;;
5454;SDS011;2750;49.050;9.250;2023-05-10T04:56:57;5.73;;;5.13;;
5454;SDS011;2750;49.050;9.250;2023-05-10T05:01:58;6.03;;;5.07;;
5454;SDS011;2750;49.050;9.250;2023-05-10T05:07:02;5.37;;;4.90;;
5454;SDS011;2750;49.050;9.250;2023-05-10T05:12:04;5.30;;;4.80;;
5454;SDS011;2750;49.050;9.250;2023-05-10T05:17:05;5.77;;;5.27;;
5454;SDS011;2750;49.050;9.250;2023-05-10T05:22:08;5.50;;;4.97;;
5454;SDS011;2750;49.050;9.250;2023-05-10T05:27:10;4.60;;;4.20;;
5454;SDS011;2750;49.050;9.250;2023-05-10T05:32:11;5.63;;;3.70;;
5454;SDS011;2750;49.050;9.250;2023-05-10T05:37:14;4.67;;;4.20;;
5454;SDS011;2750;49.050;9.250;2023-05-10T05:42:16;4.20;;;3.90;;
5454;SDS011;2750;49.050;9.250;2023-05-10T05:47:18;4.37;;;3.60;;
5454;SDS011;2750;49.050;9.250;2023-05-10T05:52:21;4.03;;;3.73;;
5454;SDS011;2750;49.050;9.250;2023-05-10T05:57:23;6.63;;;3.80;;
5454;SDS011;2750;49.050;9.250;2023-05-10T06:02:24;5.27;;;3.67;;
5454;SDS011;2750;49.050;9.250;2023-05-10T06:07:27;8.80;;;3.97;;
5454;SDS011;2750;49.050;9.250;2023-05-10T06:12:28;5.23;;;3.90;;
5454;SDS011;2750;49.050;9.250;2023-05-10T06:17:30;3.90;;;3.60;;
5454;SDS011;2750;49.050;9.250;2023-05-10T06:22:33;4.20;;;3.43;;
5454;SDS011;2750;49.050;9.250;2023-05-10T06:27:34;4.63;;;4.03;;
5454;SDS011;2750;49.050;9.250;2023-05-10T06:32:36;5.10;;;3.80;;
5454;SDS011;2750;49.050;9.250;2023-05-10T06:37:38;4.07;;;3.67;;
5454;SDS011;2750;49.050;9.250;2023-05-10T06:42:40;5.73;;;3.87;;
5454;SDS011;2750;49.050;9.250;2023-05-10T06:47:41;4.23;;;3.53;;
5454;SDS011;2750;49.050;9.250;2023-05-10T06:52:44;4.27;;;3.20;;
5454;SDS011;2750;49.050;9.250;2023-05-10T06:57:46;4.40;;;3.20;;
5454;SDS011;2750;49.050;9.250;2023-05-10T07:02:47;4.97;;;2.70;;
5454;SDS011;2750;49.050;9.250;2023-05-10T07:07:50;3.70;;;2.80;;
5454;SDS011;2750;49.050;9.250;2023-05-10T07:12:51;4.30;;;2.00;;
5454;SDS011;2750;49.050;9.250;2023-05-10T07:17:53;2.10;;;2.00;;
5454;SDS011;2750;49.050;9.250;2023-05-10T07:22:56;3.07;;;2.23;;
5454;SDS011;2750;49.050;9.250;2023-05-10T07:27:57;3.37;;;2.00;;
5454;SDS011;2750;49.050;9.250;2023-05-10T07:32:58;3.53;;;2.03;;
5454;SDS011;2750;49.050;9.250;2023-05-10T07:38:01;3.10;;;1.87;;
5454;SDS011;2750;49.050;9.250;2023-05-10T07:43:03;2.00;;;1.90;;
5454;SDS011;2750;49.050;9.250;2023-05-10T07:48:04;1.77;;;1.53;;
5454;SDS011;2750;49.050;9.250;2023-05-10T07:53:07;3.10;;;1.80;;
5454;SDS011;2750;49.050;9.250;2023-05-10T07:58:09;2.47;;;1.67;;
5454;SDS011;2750;49.050;9.250;2023-05-10T08:03:10;1.47;;;1.37;;
5454;SDS011;2750;49.050;9.250;2023-05-10T08:08:13;3.73;;;1.83;;
5454;SDS011;2750;49.050;9.250;2023-05-10T08:13:15;1.43;;;1.33;;
5454;SDS011;2750;49.050;9.250;2023-05-10T08:18:16;1.70;;;1.60;;
5454;SDS011;2750;49.050;9.250;2023-05-10T08:23:19;2.40;;;1.43;;
5454;SDS011;2750;49.050;9.250;2023-05-10T08:28:20;1.70;;;1.53;;
5454;SDS011;2750;49.050;9.250;2023-05-10T08:33:22;1.40;;;1.30;;
5454;SDS011;2750;49.050;9.250;2023-05-10T08:38:24;1.50;;;1.40;;
5454;SDS011;2750;49.050;9.250;2023-05-10T08:43:27;1.93;;;1.30;;
5454;SDS011;2750;49.050;9.250;2023-05-10T08:48:29;1.47;;;1.33;;
5454;SDS011;2750;49.050;9.250;2023-05-10T08:53:32;1.40;;;1.30;;
5454;SDS011;2750;49.050;9.250;2023-05-10T08:58:37;2.87;;;1.43;;
5454;SDS011;2750;49.050;9.250;2023-05-10T09:03:39;1.50;;;1.40;;
5454;SDS011;2750;49.050;9.250;2023-05-10T09:08:42;2.30;;;2.00;;
5454;SDS011;2750;49.050;9.250;2023-05-10T09:13:44;1.83;;;1.47;;
5454;SDS011;2750;49.050;9.250;2023-05-10T09:18:46;1.40;;;1.10;;
5454;SDS011;2750;49.050;9.250;2023-05-10T09:23:50;2.00;;;1.57;;
5454;SDS011;2750;49.050;9.250;2023-05-10T09:28:55;2.67;;;1.50;;
5454;SDS011;2750;49.050;9.250;2023-05-10T09:33:57;1.50;;;1.40;;
5454;SDS011;2750;49.050;9.250;2023-05-10T09:39:00;1.27;;;1.13;;
5454;SDS011;2750;49.050;9.250;2023-05-10T09:44:01;1.50;;;1.40;;
5454;SDS011;2750;49.050;9.250;2023-05-10T09:49:03;1.30;;;1.20;;
5454;SDS011;2750;49.050;9.250;2023-05-10T09:54:11;1.47;;;1.37;;
5454;SDS011;2750;49.050;9.250;2023-05-10T09:59:14;1.40;;;1.30;;
5454;SDS011;2750;49.050;9.250;2023-05-10T10:04:17;1.33;;;1.23;;
5454;SDS011;2750;49.050;9.250;2023-05-10T10:09:19;6.77;;;2.20;;
5454;SDS011;2750;49.050;9.250;2023-05-10T10:14:21;1.30;;;1.20;;
5454;SDS011;2750;49.050;9.250;2023-05-10T10:19:23;1.97;;;1.33;;
5454;SDS011;2750;49.050;9.250;2023-05-10T10:24:26;2.20;;;1.17;;
5454;SDS011;2750;49.050;9.250;2023-05-10T10:29:30;3.23;;;1.67;;
5454;SDS011;2750;49.050;9.250;2023-05-10T10:34:38;2.80;;;2.00;;
5454;SDS011;2750;49.050;9.250;2023-05-10T10:39:42;2.23;;;1.70;;
5454;SDS011;2750;49.050;9.250;2023-05-10T10:44:43;2.60;;;2.40;;
5454;SDS011;2750;49.050;9.250;2023-05-10T10:49:48;2.30;;;2.10;;
5454;SDS011;2750;49.050;9.250;2023-05-10T10:54:57;2.50;;;2.13;;
5454;SDS011;2750;49.050;9.250;2023-05-10T11:05:28;1.97;;;1.87;;
5454;SDS011;2750;49.050;9.250;2023-05-10T11:10:48;2.70;;;1.60;;
5454;SDS011;2750;49.050;9.250;2023-05-10T11:15:54;1.93;;;1.40;;
5454;SDS011;2750;49.050;9.250;2023-05-10T11:20:58;1.87;;;1.40;;
5454;SDS011;2750;49.050;9.250;2023-05-10T11:26:04;1.50;;;1.40;;
5454;SDS011;2750;49.050;9.250;2023-05-10T11:31:09;1.83;;;1.73;;
5454;SDS011;2750;49.050;9.250;2023-05-10T11:36:13;2.73;;;1.33;;
5454;SDS011;2750;49.050;9.250;2023-05-10T11:41:18;2.00;;;1.50;;
5454;SDS011;2750;49.050;9.250;2023-05-10T11:46:22;1.80;;;1.70;;
5454;SDS011;2750;49.050;9.250;2023-05-10T11:51:24;2.30;;;2.10;;
5454;SDS011;2750;49.050;9.250;2023-05-10T11:56:27;4.23;;;1.87;;
5454;SDS011;2750;49.050;9.250;2023-05-10T12:01:29;2.70;;;1.90;;
5454;SDS011;2750;49.050;9.250;2023-05-10T12:06:32;2.10;;;1.70;;
5454;SDS011;2750;49.050;9.250;2023-05-10T12:11:40;4.60;;;2.10;;
5454;SDS011;2750;49.050;9.250;2023-05-10T12:16:42;8.57;;;2.43;;
5454;SDS011;2750;49.050;9.250;2023-05-10T12:21:44;10.03;;;2.50;;
5454;SDS011;2750;49.050;9.250;2023-05-10T12:26:47;2.23;;;1.63;;
5454;SDS011;2750;49.050;9.250;2023-05-10T12:31:50;4.53;;;2.53;;
5454;SDS011;2750;49.050;9.250;2023-05-10T12:36:53;4.63;;;2.67;;
5454;SDS011;2750;49.050;9.250;2023-05-10T12:41:56;2.97;;;2.07;;
5454;SDS011;2750;49.050;9.250;2023-05-10T12:46:58;2.00;;;1.40;;
5454;SDS011;2750;49.050;9.250;2023-05-10T12:51:59;2.50;;;1.47;;
5454;SDS011;2750;49.050;9.250;2023-05-10T12:57:02;2.63;;;1.83;;
5454;SDS011;2750;49.050;9.250;2023-05-10T13:02:04;1.97;;;1.83;;
5454;SDS011;2750;49.050;9.250;2023-05-10T13:07:05;3.17;;;2.17;;
5454;SDS011;2750;49.050;9.250;2023-05-10T13:12:08;3.97;;;1.90;;
5454;SDS011;2750;49.050;9.250;2023-05-10T13:17:09;3.80;;;2.10;;
5454;SDS011;2750;49.050;9.250;2023-05-10T13:22:11;3.50;;;2.00;;
5454;SDS011;2750;49.050;9.250;2023-05-10T13:27:14;2.43;;;1.83;;
5454;SDS011;2750;49.050;9.250;2023-05-10T13:32:15;2.00;;;1.83;;
5454;SDS011;2750;49.050;9.250;2023-05-10T13:37:17;3.43;;;1.70;;
5454;SDS011;2750;49.050;9.250;2023-05-10T13:42:20;2.40;;;1.70;;
5454;SDS011;2750;49.050;9.250;2023-05-10T13:47:22;3.03;;;1.60;;
5454;SDS011;2750;49.050;9.250;2023-05-10T13:52:24;2.00;;;1.80;;
5454;SDS011;2750;49.050;9.250;2023-05-10T13:57:27;3.57;;;1.80;;
5454;SDS011;2750;49.050;9.250;2023-05-10T14:02:30;1.80;;;1.30;;
5454;SDS011;2750;49.050;9.250;2023-05-10T14:07:31;2.97;;;1.70;;
5454;SDS011;2750;49.050;9.250;2023-05-10T14:12:34;1.40;;;1.27;;
5454;SDS011;2750;49.050;9.250;2023-05-10T14:17:36;8.53;;;1.83;;
5454;SDS011;2750;49.050;9.250;2023-05-10T14:22:37;3.33;;;1.17;;
5454;SDS011;2750;49.050;9.250;2023-05-10T14:27:40;3.23;;;1.60;;
5454;SDS011;2750;49.050;9.250;2023-05-10T14:32:41;2.17;;;1.13;;
5454;SDS011;2750;49.050;9.250;2023-05-10T14:37:43;2.03;;;1.40;;
5454;SDS011;2750;49.050;9.250;2023-05-10T14:42:46;1.50;;;1.40;;
5454;SDS011;2750;49.050;9.250;2023-05-10T14:47:47;2.20;;;1.30;;
5454;SDS011;2750;49.050;9.250;2023-05-10T14:52:49;2.10;;;1.40;;
5454;SDS011;2750;49.050;9.250;2023-05-10T14:57:52;1.83;;;1.20;;
5454;SDS011;2750;49.050;9.250;2023-05-10T15:02:54;2.20;;;1.33;;
5454;SDS011;2750;49.050;9.250;2023-05-10T15:07:55;1.70;;;1.23;;
5454;SDS011;2750;49.050;9.250;2023-05-10T15:12:58;2.07;;;1.20;;
5454;SDS011;2750;49.050;9.250;2023-05-10T15:18:00;4.60;;;1.30;;
5454;SDS011;2750;49.050;9.250;2023-05-10T15:23:01;2.60;;;1.30;;
5454;SDS011;2750;49.050;9.250;2023-05-10T15:28:04;1.77;;;1.13;;
5454;SDS011;2750;49.050;9.250;2023-05-10T15:33:06;2.10;;;1.10;;
5454;SDS011;2750;49.050;9.250;2023-05-10T15:38:08;3.87;;;1.30;;
5454;SDS011;2750;49.050;9.250;2023-05-10T15:43:12;1.67;;;1.03;;
5454;SDS011;2750;49.050;9.250;2023-05-10T15:48:13;1.27;;;1.10;;
5454;SDS011;2750;49.050;9.250;2023-05-10T15:53:15;1.97;;;1.10;;
5454;SDS011;2750;49.050;9.250;2023-05-10T15:58:18;1.10;;;1.00;;
5454;SDS011;2750;49.050;9.250;2023-05-10T16:03:19;1.40;;;1.30;;
5454;SDS011;2750;49.050;9.250;2023-05-10T16:08:21;2.10;;;0.90;;
5454;SDS011;2750;49.050;9.250;2023-05-10T16:13:23;1.10;;;1.00;;
5454;SDS011;2750;49.050;9.250;2023-05-10T16:18:25;1.20;;;1.10;;
5454;SDS011;2750;49.050;9.250;2023-05-10T16:23:27;1.40;;;1.30;;
5454;SDS011;2750;49.050;9.250;2023-05-10T16:28:30;1.07;;;0.90;;
5454;SDS011;2750;49.050;9.250;2023-05-10T16:33:31;2.87;;;1.70;;
5454;SDS011;2750;49.050;9.250;2023-05-10T16:38:33;3.93;;;1.63;;
5454;SDS011;2750;49.050;9.250;2023-05-10T16:43:35;2.73;;;1.30;;
5454;SDS011;2750;49.050;9.250;2023-05-10T16:48:37;3.27;;;2.00;;
5454;SDS011;2750;49.050;9.250;2023-05-10T16:53:39;7.53;;;3.00;;
5454;SDS011;2750;49.050;9.250;2023-05-10T16:58:41;3.63;;;2.60;;
5454;SDS011;2750;49.050;9.250;2023-05-10T17:03:43;8.77;;;3.67;;
5454;SDS011;2750;49.050;9.250;2023-05-10T17:08:44;9.87;;;4.63;;
5454;SDS011;2750;49.050;9.250;2023-05-10T17:13:47;10.93;;;6.53;;
5454;SDS011;2750;49.050;9.250;2023-05-10T17:18:50;7.40;;;4.63;;
5454;SDS011;2750;49.050;9.250;2023-05-10T17:23:52;13.73;;;6.60;;
5454;SDS011;2750;49.050;9.250;2023-05-10T17:28:55;8.10;;;5.27;;
5454;SDS011;2750;49.050;9.250;2023-05-10T17:33:56;4.83;;;2.53;;
5454;SDS011;2750;49.050;9.250;2023-05-10T17:38:58;4.83;;;2.47;;
5454;SDS011;2750;49.050;9.250;2023-05-10T17:44:02;9.07;;;4.30;;
5454;SDS011;2750;49.050;9.250;2023-05-10T17:49:03;6.77;;;4.20;;
5454;SDS011;2750;49.050;9.250;2023-05-10T17:54:05;5.00;;;3.20;;
5454;SDS011;2750;49.050;9.250;2023-05-10T17:59:07;6.43;;;4.77;;
5454;SDS011;2750;49.050;9.250;2023-05-10T18:04:09;2.73;;;1.67;;
5454;SDS011;2750;49.050;9.250;2023-05-10T18:09:10;5.43;;;3.47;;
5454;SDS011;2750;49.050;9.250;2023-05-10T18:14:13;12.10;;;7.03;;
5454;SDS011;2750;49.050;9.250;2023-05-10T18:19:15;8.40;;;4.23;;
5454;SDS011;2750;49.050;9.250;2023-05-10T18:24:17;7.77;;;4.77;;
5454;SDS011;2750;49.050;9.250;2023-05-10T18:29:21;3.33;;;2.23;;
5454;SDS011;2750;49.050;9.250;2023-05-10T18:34:23;7.07;;;3.50;;
5454;SDS011;2750;49.050;9.250;2023-05-10T18:39:24;8.10;;;5.07;;
5454;SDS011;2750;49.050;9.250;2023-05-10T18:44:27;5.83;;;3.70;;
5454;SDS011;2750;49.050;9.250;2023-05-10T18:49:29;4.03;;;2.77;;
5454;SDS011;2750;49.050;9.250;2023-05-10T18:54:31;5.33;;;2.97;;
5454;SDS011;2750;49.050;9.250;2023-05-10T18:59:33;7.70;;;5.07;;
5454;SDS011;2750;49.050;9.250;2023-05-10T19:04:35;5.90;;;2.10;;
5454;SDS011;2750;49.050;9.250;2023-05-10T19:09:36;5.13;;;2.83;;
5454;SDS011;2750;49.050;9.250;2023-05-10T19:14:39;5.93;;;2.27;;
5454;SDS011;2750;49.050;9.250;2023-05-10T19:19:41;4.97;;;1.77;;
5454;SDS011;2750;49.050;9.250;2023-05-10T19:24:42;2.50;;;2.10;;
5454;SDS011;2750;49.050;9.250;2023-05-10T19:29:45;4.63;;;1.83;;
5454;SDS011;2750;49.050;9.250;2023-05-10T19:34:46;3.50;;;1.77;;
5454;SDS011;2750;49.050;9.250;2023-05-10T19:39:48;3.20;;;1.47;;
5454;SDS011;2750;49.050;9.250;2023-05-10T19:44:51;2.00;;;1.17;;
5454;SDS011;2750;49.050;9.250;2023-05-10T19:49:53;2.93;;;1.53;;
5454;SDS011;2750;49.050;9.250;2023-05-10T19:54:54;5.63;;;2.03;;
5454;SDS011;2750;49.050;9.250;2023-05-10T19:59:57;2.50;;;1.67;;
5454;SDS011;2750;49.050;9.250;2023-05-10T20:04:59;2.03;;;1.57;;
5454;SDS011;2750;49.050;9.250;2023-05-10T20:10:00;2.83;;;1.43;;
5454;SDS011;2750;49.050;9.250;2023-05-10T20:15:04;2.20;;;1.40;;
5454;SDS011;2750;49.050;9.250;2023-05-10T20:20:06;2.80;;;1.60;;
5454;SDS011;2750;49.050;9.250;2023-05-10T20:25:08;2.50;;;1.60;;
5454;SDS011;2750;49.050;9.250;2023-05-10T20:30:12;2.00;;;1.67;;
5454;SDS011;2750;49.050;9.250;2023-05-10T20:35:13;2.97;;;1.40;;
5454;SDS011;2750;49.050;9.250;2023-05-10T20:40:15;3.17;;;1.80;;
5454;SDS011;2750;49.050;9.250;2023-05-10T20:45:18;4.10;;;1.50;;
5454;SDS011;2750;49.050;9.250;2023-05-10T20:50:19;2.63;;;1.67;;
5454;SDS011;2750;49.050;9.250;2023-05-10T20:55:21;2.37;;;1.63;;
5454;SDS011;2750;49.050;9.250;2023-05-10T21:00:24;1.60;;;1.50;;
5454;SDS011;2750;49.050;9.250;2023-05-10T21:05:25;2.83;;;1.70;;
5454;SDS011;2750;49.050;9.250;2023-05-10T21:10:27;5.50;;;1.70;;
5454;SDS011;2750;49.050;9.250;2023-05-10T21:15:29;2.07;;;1.60;;
5454;SDS011;2750;49.050;9.250;2023-05-10T21:20:31;9.40;;;5.20;;
5454;SDS011;2750;49.050;9.250;2023-05-10T21:25:32;3.93;;;2.03;;
5454;SDS011;2750;49.050;9.250;2023-05-10T21:30:36;8.13;;;3.57;;
5454;SDS011;2750;49.050;9.250;2023-05-10T21:35:37;5.13;;;3.03;;
5454;SDS011;2750;49.050;9.250;2023-05-10T21:40:41;3.07;;;1.80;;
5454;SDS011;2750;49.050;9.250;2023-05-10T21:45:44;4.53;;;1.47;;
5454;SDS011;2750;49.050;9.250;2023-05-10T21:50:45;1.60;;;1.50;;
5454;SDS011;2750;49.050;9.250;2023-05-10T21:55:47;2.33;;;1.57;;
5454;SDS011;2750;49.050;9.250;2023-05-10T22:00:50;2.67;;;1.60;;
5454;SDS011;2750;49.050;9.250;2023-05-10T22:05:51;2.97;;;1.77;;
5454;SDS011;2750;49.050;9.250;2023-05-10T22:10:53;2.80;;;1.70;;
5454;SDS011;2750;49.050;9.250;2023-05-10T22:15:55;2.13;;;1.70;;
5454;SDS011;2750;49.050;9.250;2023-05-10T22:20:57;2.57;;;1.57;;
5454;SDS011;2750;49.050;9.250;2023-05-10T22:25:59;1.47;;;1.37;;
5454;SDS011;2750;49.050;9.250;2023-05-10T22:31:07;3.73;;;1.90;;
5454;SDS011;2750;49.050;9.250;2023-05-10T22:36:09;3.83;;;1.70;;
5454;SDS011;2750;49.050;9.250;2023-05-10T22:41:10;2.73;;;1.60;;
5454;SDS011;2750;49.050;9.250;2023-05-10T22:46:13;2.13;;;1.57;;
5454;SDS011;2750;49.050;9.250;2023-05-10T22:51:15;3.23;;;1.37;;
5454;SDS011;2750;49.050;9.250;2023-05-10T22:56:16;1.80;;;1.40;;
5454;SDS011;2750;49.050;9.250;2023-05-10T23:01:19;3.50;;;1.60;;
5454;SDS011;2750;49.050;9.250;2023-05-10T23:06:21;2.87;;;1.93;;
5454;SDS011;2750;49.050;9.250;2023-05-10T23:11:22;2.50;;;1.60;;
5454;SDS011;2750;49.050;9.250;2023-05-10T23:16:25;6.93;;;2.37;;
5454;SDS011;2750;49.050;9.250;2023-05-10T23:21:27;2.63;;;1.67;;
5454;SDS011;2750;49.050;9.250;2023-05-10T23:26:28;2.03;;;1.60;;
5454;SDS011;2750;49.050;9.250;2023-05-10T23:31:31;2.07;;;1.87;;
5454;SDS011;2750;49.050;9.250;2023-05-10T23:36:32;4.03;;;1.63;;
5454;SDS011;2750;49.050;9.250;2023-05-10T23:41:34;1.57;;;1.20;;
5454;SDS011;2750;49.050;9.250;2023-05-10T23:46:36;2.60;;;1.73;;
5454;SDS011;2750;49.050;9.250;2023-05-10T23:51:38;3.40;;;1.77;;
5454;SDS011;2750;49.050;9.250;2023-05-10T23:56:39;3.13;;;2.00;;
